Fes, Morocco
Current Conditions -  °F | °C
As of 3:00 AM on Friday 28 Nov 2014 (Local Time) from GMFF Reporting Station
Broken Clouds Broken Clouds  
Wind Chill: 59°   Ceiling: 3000
Heat Index: 59°   Visibility: 6mi
Dew Point: 43°   Wind: 25mph
Humidity: 55%   Direction: 210°SSW
Pressure: 29.32"   Gusts: 41mph
Location:  34.05°N, 5°W
Report Text: GMFF 280200Z 21022G36KT 9999 BKN030 BKN100 15/06 Q0993 NOSIG
Loading
Personal Weather Stations






























Interactive Weather Map New forecast layout! Learn more

10-Day Weather Forecast

Advertisements
Track Severe Weather on mobile